Weather at Ranč RAMARIN

Public forecast

Using degrees Celsius for public forecast. Weather courtesy of forecast.io.

Closest aviation weather report (METAR) to Ranč RAMARIN

Closest report is Osijek Airport, 31.6 nm (58.6 km) ENE.

2024/05/30 06:00 (retrieved 17 minutes ago)

LDOS 300600Z 27005KT CAVOK 18/14 Q1009

Closest aviation forecast (TAF) to Ranč RAMARIN

Closest forecast is Osijek Airport, 31.6 nm (58.6 km) ENE.

2024/05/30 06:27 (retrieved 0 seconds ago)

TAF LDOS 300525Z 3006/3106 24005KT CAVOK TX27/3013Z TN16/3006Z PROB30 TEMPO 3010/3014 FEW035TCU PROB40 TEMPO 3012/3021 22020KT TSRA SCT045 FEW050CB